Airfield :
LOGIN :

Register | Disclaimer

   EN    FR    IT 

 










Legend :    VFR   Marginal VFR   IFR   Intensive IFR   Very Intensive IFR
Visi :
Ceiling :
>= 8 km
>= 3000ft
5 to 8 km
1000 to 3000 ft
1500m to 5 km
500 to 1000 ft
800 to 1500m
200 to 500 ft
< 800m
< 200 ft
Symbols :   Thunderstorms  Fog  Heavy snow  Heavy precipitations  Wind > 20 kt
SIGMETs :     Misc.  Thunderstorms  Icing  Turbulence  Mountain Waves  Volcanic Ashes






- Airport Elevation : 72 ft
- IATA code : UDE


EHVK - Volkel Airbase

CURRENT METAR :
  • 271855Z AUTO 17009KT 140V200 9999 SCT047 BKN052 OVC087 08/06 Q0999 BLU 18008KT 9999 FEW018 BKN050 TEMPO SCT018 BKN050

EXPIRED METARs :
  • 271844Z AUTO 17010KT 140V200 9999 FEW018 SCT047 OVC051 08/06 Q0999 BLU 18008KT 9999 FEW018 BKN050 TEMPO SCT018 BKN050
  • 271825Z AUTO 17008KT 140V200 9999 SCT026 SCT030 BKN034 08/06 Q1000 BLU 18008KT 9999 FEW018 BKN050 TEMPO SCT018 BKN050
  • 271809Z AUTO 18009KT 150V210 9999 -RA FEW012 BKN024 BKN027 08/06 Q1000 WHT 18008KT 9999 FEW018 BKN050 TEMPO SCT018 BKN050
  • 271755Z AUTO 18007KT 140V200 9999 FEW023 BKN037 OVC041 08/06 Q1000 BLU 18008KT 9999 FEW018 BKN050 TEMPO SCT018 BKN050
  • 271733Z AUTO 17008KT 140V210 9999 FEW026/// BKN037/// BKN041/// 08/06 Q1001 BLU 18008KT 9999 FEW018 BKN050 TEMPO SCT018 BKN050
  • 271725Z AUTO 18009KT 140V220 9999 FEW016 SCT036 BKN041 08/06 Q1001 BLU 20008KT 9999 SCT018 SCT035 OVC110 TEMPO FEW018 SCT035 OVC110
  • 271720Z AUTO 18009KT 150V220 9999 FEW016 BKN025 BKN039 08/06 Q1001 BLU 20008KT 9999 SCT018 SCT035 OVC110 TEMPO FEW018 SCT035 OVC110
  • 271655Z AUTO 18009KT 150V220 9999 -RA BKN024 OVC027 09/06 Q1001 WHT 20008KT 9999 SCT018 SCT035 OVC110 TEMPO FEW018 SCT035 OVC110
  • 271625Z AUTO 18009KT 150V220 9999 SCT036 SCT069 OVC120 09/07 Q1002 BLU 20008KT 9999 SCT018 SCT035 OVC110 TEMPO FEW018 SCT035 OVC110

TAF TAF EHVK
Valid from the 27 at 18:00 until the 28 at 06:00 UTC


271703Z 2718/2806 19010KT 9999 SCT025 BKN040
TEMPO 2721/2724 20015G25KT 4000 RA SCT008 BKN012
PROB30
TEMPO 2722/2724 3500 SHRA SCT008 BKN012 SCT018CB
BECMG 2800/2802 21012G22KT SCT018 BKN025



MET'MAP, your aeronautical weather chart ! - Copyright ORBIFLY December 2007 - Disclaimer

ORBIFLY MET'MAP TEAM :

Programming & Development : Alexandra Zaïnal
Concept & original design : Baudouin d'Aumeries
Assistance for programming : Marc-Olivier Méhu
Technical & hardware support : Manuel Goepfert

Contact : metmap@orbifly.com




SOURCES & CREDITS :

   NOAA